Time;durP1;ratioP1;P1;durP2;ratioP2;P2;SDS_P1;SDS_P2;PMS_P1;PMS_P2;Temp;Humidity;BMP_temperature;BMP_pressure;BME280_temperature;BME280_humidity;BME280_pressure;Samples;Min_cycle;Max_cycle;Signal;HPM_P1;HPM_P2
2023/11/28 00:01:45;;;;;;;3.00;2.80;;;;;;;;;;4986985;28;20383;-63
2023/11/28 00:04:38;;;;;;;3.10;2.90;;;;;;;;;;4988582;28;20317;-62
2023/11/28 00:07:06;;;;;;;2.88;2.70;;;;;;;;;;4986762;28;20239;-63
2023/11/28 00:09:34;;;;;;;3.20;3.00;;;;;;;;;;4988255;28;20214;-62
2023/11/28 00:12:04;;;;;;;3.85;3.42;;;;;;;;;;4988840;28;20215;-62
2023/11/28 00:14:33;;;;;;;2.90;2.80;;;;;;;;;;4988167;28;20309;-62
2023/11/28 00:17:28;;;;;;;3.45;3.22;;;;;;;;;;4988380;28;20187;-62
2023/11/28 00:19:56;;;;;;;3.67;3.40;;;;;;;;;;4988482;28;20243;-63
2023/11/28 00:22:25;;;;;;;3.40;3.20;;;;;;;;;;4987009;28;20230;-62
2023/11/28 00:24:54;;;;;;;3.50;3.20;;;;;;;;;;4988181;28;20257;-62
2023/11/28 00:27:24;;;;;;;3.97;3.13;;;;;;;;;;4988450;28;20258;-63
2023/11/28 00:29:52;;;;;;;3.25;2.78;;;;;;;;;;4987731;28;20265;-62
2023/11/28 00:32:23;;;;;;;2.88;2.67;;;;;;;;;;4972385;28;20244;-62
2023/11/28 00:34:52;;;;;;;3.42;3.20;;;;;;;;;;4989162;28;20224;-63
2023/11/28 00:37:21;;;;;;;4.70;3.17;;;;;;;;;;4988613;28;20242;-63
2023/11/28 00:40:14;;;;;;;3.13;2.92;;;;;;;;;;4988129;28;20713;-62
2023/11/28 00:43:08;;;;;;;3.92;3.67;;;;;;;;;;4991383;28;20212;-63
2023/11/28 00:45:38;;;;;;;3.42;3.13;;;;;;;;;;4991251;28;20234;-63
2023/11/28 00:48:07;;;;;;;3.70;3.40;;;;;;;;;;4990978;28;20302;-63
2023/11/28 00:51:01;;;;;;;3.10;2.90;;;;;;;;;;4992236;28;20191;-63
2023/11/28 00:53:30;;;;;;;4.22;3.10;;;;;;;;;;4991544;28;20219;-63
2023/11/28 00:55:59;;;;;;;3.60;3.35;;;;;;;;;;4990154;28;20227;-62
2023/11/28 00:58:29;;;;;;;4.85;3.45;;;;;;;;;;4990341;28;20243;-63
2023/11/28 01:00:58;;;;;;;4.47;4.00;;;;;;;;;;4991218;28;20220;-62
2023/11/28 01:03:27;;;;;;;3.80;3.40;;;;;;;;;;4989943;28;20250;-62
2023/11/28 01:05:55;;;;;;;4.93;3.30;;;;;;;;;;4974630;28;20291;-63
2023/11/28 01:08:23;;;;;;;3.78;3.47;;;;;;;;;;4974363;28;20254;-63
2023/11/28 01:10:53;;;;;;;4.28;3.80;;;;;;;;;;4990473;28;20239;-63
2023/11/28 01:13:21;;;;;;;3.65;3.35;;;;;;;;;;4991717;28;20234;-63
2023/11/28 01:15:51;;;;;;;4.22;3.83;;;;;;;;;;4991580;28;20242;-63
2023/11/28 01:18:19;;;;;;;3.75;3.15;;;;;;;;;;4991490;28;20245;-63
2023/11/28 01:20:48;;;;;;;3.50;3.20;;;;;;;;;;4992790;28;20240;-63
2023/11/28 01:23:17;;;;;;;2.97;2.88;;;;;;;;;;4991298;28;20254;-63
2023/11/28 01:25:46;;;;;;;3.08;2.85;;;;;;;;;;4991753;28;20697;-63
2023/11/28 01:28:39;;;;;;;4.07;3.30;;;;;;;;;;4991736;28;20210;-63
2023/11/28 01:31:12;;;;;;;3.38;3.15;;;;;;;;;;4992587;28;20207;-63
2023/11/28 01:34:05;;;;;;;3.40;3.03;;;;;;;;;;4992640;28;20242;-63
2023/11/28 01:36:33;;;;;;;3.28;3.08;;;;;;;;;;4991516;28;20755;-63
2023/11/28 01:39:03;;;;;;;3.00;2.90;;;;;;;;;;4992252;28;20231;-62
2023/11/28 01:41:32;;;;;;;2.92;2.72;;;;;;;;;;4990767;28;20250;-63
2023/11/28 01:44:04;;;;;;;3.10;2.90;;;;;;;;;;4992267;28;20255;-63
2023/11/28 01:46:35;;;;;;;3.30;3.10;;;;;;;;;;4991678;28;20297;-63
2023/11/28 01:49:04;;;;;;;3.88;3.67;;;;;;;;;;4991784;28;20219;-62
2023/11/28 01:51:56;;;;;;;3.15;2.95;;;;;;;;;;4990843;28;20210;-63
2023/11/28 01:54:26;;;;;;;4.43;4.03;;;;;;;;;;4991218;28;20238;-62
2023/11/28 01:56:55;;;;;;;3.45;3.25;;;;;;;;;;4990856;28;20261;-63
2023/11/28 01:59:29;;;;;;;7.63;4.25;;;;;;;;;;4990848;28;20257;-63
2023/11/28 02:01:59;;;;;;;5.68;3.90;;;;;;;;;;4974724;28;20270;-66
2023/11/28 02:04:27;;;;;;;3.40;3.10;;;;;;;;;;4969145;28;20215;-66
2023/11/28 02:06:55;;;;;;;3.80;3.30;;;;;;;;;;4970173;28;20674;-66
2023/11/28 02:09:23;;;;;;;3.33;3.13;;;;;;;;;;4971450;28;20230;-67
2023/11/28 02:11:52;;;;;;;3.65;3.35;;;;;;;;;;5006107;28;20202;-66
2023/11/28 02:14:20;;;;;;;3.83;3.53;;;;;;;;;;5009871;28;20217;-66
2023/11/28 02:16:48;;;;;;;3.42;3.22;;;;;;;;;;5009033;28;20206;-66
2023/11/28 02:19:19;;;;;;;3.08;2.88;;;;;;;;;;4999781;28;20198;-67
2023/11/28 02:21:47;;;;;;;3.10;2.90;;;;;;;;;;4995789;28;20205;-66
2023/11/28 02:24:16;;;;;;;3.20;3.00;;;;;;;;;;5008960;28;20216;-67
2023/11/28 02:26:46;;;;;;;2.55;2.13;;;;;;;;;;5007362;28;20196;-67
2023/11/28 02:29:14;;;;;;;3.13;2.92;;;;;;;;;;5009169;28;20275;-66
2023/11/28 02:31:42;;;;;;;3.13;2.92;;;;;;;;;;5005349;28;20199;-67
2023/11/28 02:34:10;;;;;;;3.00;2.80;;;;;;;;;;5010558;28;20206;-66
2023/11/28 02:36:38;;;;;;;2.63;2.50;;;;;;;;;;5008928;28;20231;-66
2023/11/28 02:39:07;;;;;;;3.05;2.85;;;;;;;;;;5010217;28;20205;-66
2023/11/28 02:41:35;;;;;;;4.60;2.70;;;;;;;;;;5006331;28;20222;-66
2023/11/28 02:44:05;;;;;;;2.72;2.53;;;;;;;;;;4996394;28;20236;-66
2023/11/28 02:46:33;;;;;;;2.40;2.30;;;;;;;;;;4988820;28;20664;-66
2023/11/28 02:49:01;;;;;;;2.75;2.55;;;;;;;;;;4979337;28;20239;-66
2023/11/28 02:51:29;;;;;;;3.90;2.83;;;;;;;;;;5018035;28;20718;-66
2023/11/28 02:53:57;;;;;;;2.97;2.78;;;;;;;;;;4995587;28;20406;-66
2023/11/28 02:56:26;;;;;;;2.78;2.63;;;;;;;;;;5009175;28;20201;-66
2023/11/28 02:58:56;;;;;;;6.82;4.75;;;;;;;;;;5008563;28;20202;-66
2023/11/28 03:01:26;;;;;;;10.18;5.63;;;;;;;;;;5008807;28;20223;-67
2023/11/28 03:03:54;;;;;;;3.45;3.25;;;;;;;;;;5005962;28;20202;-66
2023/11/28 03:06:23;;;;;;;6.78;2.83;;;;;;;;;;5007586;28;20210;-66
2023/11/28 03:08:52;;;;;;;2.80;2.60;;;;;;;;;;5009463;28;20226;-66
2023/11/28 03:11:20;;;;;;;2.17;2.08;;;;;;;;;;5009383;28;20213;-66
2023/11/28 03:13:49;;;;;;;2.80;2.70;;;;;;;;;;5000635;28;20733;-66
2023/11/28 03:16:17;;;;;;;2.63;2.42;;;;;;;;;;5008899;28;20232;-66
2023/11/28 03:18:46;;;;;;;2.67;2.47;;;;;;;;;;5008893;28;20581;-67
2023/11/28 03:21:14;;;;;;;2.78;2.67;;;;;;;;;;5009645;28;20208;-66
2023/11/28 03:23:43;;;;;;;2.47;2.38;;;;;;;;;;4995697;28;20213;-67
2023/11/28 03:26:10;;;;;;;3.05;2.45;;;;;;;;;;5004454;28;20205;-67
2023/11/28 03:28:39;;;;;;;2.65;2.50;;;;;;;;;;4993204;28;20206;-67
2023/11/28 03:31:07;;;;;;;2.85;2.65;;;;;;;;;;4988664;28;20213;-66
2023/11/28 03:33:36;;;;;;;2.80;2.65;;;;;;;;;;4989937;28;20206;-66
2023/11/28 03:36:06;;;;;;;2.80;2.60;;;;;;;;;;4989644;28;20203;-66
2023/11/28 03:38:34;;;;;;;2.78;2.58;;;;;;;;;;4989761;28;20699;-66
2023/11/28 03:41:02;;;;;;;2.75;2.55;;;;;;;;;;4988993;28;20238;-66
2023/11/28 03:43:31;;;;;;;2.95;2.75;;;;;;;;;;4987837;28;20231;-66
2023/11/28 03:45:59;;;;;;;2.20;2.10;;;;;;;;;;5003711;28;20267;-66
2023/11/28 03:48:27;;;;;;;3.17;2.83;;;;;;;;;;4983538;28;20211;-66
2023/11/28 03:50:56;;;;;;;2.55;2.38;;;;;;;;;;4968676;28;20227;-66
2023/11/28 03:53:26;;;;;;;2.22;2.13;;;;;;;;;;4982103;28;20233;-66
2023/11/28 03:55:54;;;;;;;2.17;2.08;;;;;;;;;;4987868;28;20207;-66
2023/11/28 03:58:23;;;;;;;2.63;2.45;;;;;;;;;;4989622;28;20207;-66
2023/11/28 04:00:52;;;;;;;1.73;1.63;;;;;;;;;;4988704;28;20610;-66
2023/11/28 04:03:20;;;;;;;2.00;1.90;;;;;;;;;;4988494;28;20570;-66
2023/11/28 04:05:49;;;;;;;1.75;1.65;;;;;;;;;;4987715;28;20691;-66
2023/11/28 04:08:18;;;;;;;2.42;2.33;;;;;;;;;;4988025;28;20275;-66
2023/11/28 04:10:47;;;;;;;3.58;2.03;;;;;;;;;;4987508;28;20697;-66
2023/11/28 04:13:15;;;;;;;2.50;2.30;;;;;;;;;;4989141;28;20670;-66
2023/11/28 04:15:44;;;;;;;3.30;3.08;;;;;;;;;;4990467;28;20585;-66
2023/11/28 04:18:12;;;;;;;1.77;1.67;;;;;;;;;;4991426;28;20201;-66
2023/11/28 04:20:41;;;;;;;2.13;2.03;;;;;;;;;;4992428;28;20206;-66
2023/11/28 04:23:11;;;;;;;1.70;1.60;;;;;;;;;;4972217;28;20588;-66
2023/11/28 04:25:39;;;;;;;2.60;1.48;;;;;;;;;;4971870;28;20210;-66
2023/11/28 04:28:09;;;;;;;1.50;1.30;;;;;;;;;;4972100;28;20245;-66
2023/11/28 04:30:38;;;;;;;1.55;1.45;;;;;;;;;;4973127;28;20227;-66
2023/11/28 04:33:06;;;;;;;1.52;1.42;;;;;;;;;;4978427;28;20208;-66
2023/11/28 04:35:34;;;;;;;1.50;1.40;;;;;;;;;;5011512;28;20205;-66
2023/11/28 04:38:02;;;;;;;0.93;0.93;;;;;;;;;;5011104;28;20571;-66
2023/11/28 04:40:31;;;;;;;1.10;1.00;;;;;;;;;;5010326;28;20577;-66
2023/11/28 04:42:59;;;;;;;1.70;1.60;;;;;;;;;;5010552;28;20206;-66
2023/11/28 04:45:29;;;;;;;1.80;1.30;;;;;;;;;;5011689;28;20206;-66
2023/11/28 04:47:57;;;;;;;0.90;0.90;;;;;;;;;;5010303;28;20668;-66
2023/11/28 04:50:25;;;;;;;1.23;1.13;;;;;;;;;;5010400;28;20230;-66
2023/11/28 04:52:54;;;;;;;1.80;1.70;;;;;;;;;;5010599;28;20206;-66
2023/11/28 04:55:22;;;;;;;1.08;1.08;;;;;;;;;;5010071;28;20586;-66
2023/11/28 04:57:51;;;;;;;1.42;1.25;;;;;;;;;;4990930;28;20264;-66
2023/11/28 05:00:19;;;;;;;1.30;1.20;;;;;;;;;;4974605;28;20583;-66
2023/11/28 05:02:49;;;;;;;1.00;1.00;;;;;;;;;;4989441;28;20209;-66
2023/11/28 05:05:19;;;;;;;0.95;0.95;;;;;;;;;;4985806;28;20212;-66
2023/11/28 05:07:47;;;;;;;1.30;1.20;;;;;;;;;;5010273;28;20210;-66
2023/11/28 05:10:16;;;;;;;1.20;1.10;;;;;;;;;;5010167;28;20274;-66
2023/11/28 05:12:44;;;;;;;1.38;1.27;;;;;;;;;;5011382;28;20206;-66
2023/11/28 05:15:12;;;;;;;1.00;1.00;;;;;;;;;;5010128;28;20205;-66
2023/11/28 05:17:41;;;;;;;1.20;1.10;;;;;;;;;;5009847;28;20214;-66
2023/11/28 05:20:12;;;;;;;1.08;0.98;;;;;;;;;;5011072;28;20212;-65
2023/11/28 05:22:41;;;;;;;1.33;1.08;;;;;;;;;;4990629;28;20209;-66
2023/11/28 05:25:11;;;;;;;1.50;1.40;;;;;;;;;;4989996;28;20252;-66
2023/11/28 05:27:39;;;;;;;1.13;1.02;;;;;;;;;;4989914;28;20203;-65
2023/11/28 05:30:09;;;;;;;1.23;1.13;;;;;;;;;;4990386;28;20233;-65
2023/11/28 05:32:38;;;;;;;0.60;0.60;;;;;;;;;;4991621;28;20217;-65
2023/11/28 05:35:06;;;;;;;0.60;0.60;;;;;;;;;;4990293;28;20214;-65
2023/11/28 05:37:36;;;;;;;0.90;0.90;;;;;;;;;;4991415;28;20234;-65
2023/11/28 05:40:07;;;;;;;0.80;0.80;;;;;;;;;;4974172;28;20198;-65
2023/11/28 05:42:35;;;;;;;1.20;1.10;;;;;;;;;;4990396;28;20590;-65
2023/11/28 05:45:05;;;;;;;2.30;1.00;;;;;;;;;;4991199;28;20223;-65
2023/11/28 05:47:34;;;;;;;0.80;0.80;;;;;;;;;;4991270;28;20195;-65
2023/11/28 05:50:03;;;;;;;0.77;0.77;;;;;;;;;;4990058;28;20222;-65
2023/11/28 05:52:33;;;;;;;0.57;0.57;;;;;;;;;;4991149;28;20214;-65
2023/11/28 05:55:02;;;;;;;0.63;0.63;;;;;;;;;;4990927;28;20209;-65
2023/11/28 05:57:30;;;;;;;0.70;0.70;;;;;;;;;;4990790;28;20251;-65
2023/11/28 05:59:59;;;;;;;0.90;0.90;;;;;;;;;;4989910;28;20206;-65
2023/11/28 06:02:27;;;;;;;0.70;0.70;;;;;;;;;;4989920;28;20211;-65
2023/11/28 06:04:55;;;;;;;0.50;0.50;;;;;;;;;;4980620;28;20577;-65
2023/11/28 06:07:24;;;;;;;0.60;0.60;;;;;;;;;;4977192;28;20571;-65
2023/11/28 06:09:53;;;;;;;0.60;0.60;;;;;;;;;;4974920;28;20206;-65
2023/11/28 06:12:22;;;;;;;0.60;0.60;;;;;;;;;;5009148;28;20206;-65
2023/11/28 06:14:50;;;;;;;0.60;0.60;;;;;;;;;;4990726;28;20219;-66
2023/11/28 06:17:19;;;;;;;0.60;0.60;;;;;;;;;;4990525;28;20199;-65
2023/11/28 06:19:47;;;;;;;1.13;1.02;;;;;;;;;;4999696;28;20657;-65
2023/11/28 06:22:16;;;;;;;0.70;0.70;;;;;;;;;;4994174;28;20194;-65
2023/11/28 06:24:44;;;;;;;0.90;0.90;;;;;;;;;;5004953;28;20624;-65
2023/11/28 06:27:13;;;;;;;0.68;0.68;;;;;;;;;;4991768;28;20236;-66
2023/11/28 06:29:43;;;;;;;0.70;0.70;;;;;;;;;;4983460;28;20195;-66
2023/11/28 06:32:11;;;;;;;0.60;0.60;;;;;;;;;;4980772;28;20213;-66
2023/11/28 06:34:40;;;;;;;0.80;0.80;;;;;;;;;;4978896;28;20245;-65
2023/11/28 06:37:09;;;;;;;0.60;0.60;;;;;;;;;;4970047;28;20252;-65
2023/11/28 06:39:39;;;;;;;0.90;0.90;;;;;;;;;;4988143;28;20559;-66
2023/11/28 06:42:07;;;;;;;1.08;0.98;;;;;;;;;;5008094;28;20233;-66
2023/11/28 06:44:35;;;;;;;0.60;0.60;;;;;;;;;;4995405;28;20240;-66
2023/11/28 06:47:06;;;;;;;0.95;0.80;;;;;;;;;;4990457;28;20222;-66
2023/11/28 06:49:34;;;;;;;1.20;0.77;;;;;;;;;;5006324;28;20194;-66
2023/11/28 06:52:02;;;;;;;1.45;1.35;;;;;;;;;;5001038;28;20778;-67
2023/11/28 06:54:31;;;;;;;1.52;1.10;;;;;;;;;;5004591;28;20292;-66
2023/11/28 06:56:59;;;;;;;0.77;0.77;;;;;;;;;;5056742;28;20714;-65
2023/11/28 06:59:27;;;;;;;1.23;1.13;;;;;;;;;;5098096;28;20656;-64
2023/11/28 07:01:55;;;;;;;1.08;1.08;;;;;;;;;;5029801;28;20593;-65
2023/11/28 07:04:25;;;;;;;1.40;1.10;;;;;;;;;;4980726;28;20199;-65
2023/11/28 07:06:54;;;;;;;1.55;1.45;;;;;;;;;;4978900;28;20622;-66
2023/11/28 07:09:23;;;;;;;1.30;1.20;;;;;;;;;;4971582;28;20240;-65
2023/11/28 07:11:53;;;;;;;1.50;1.10;;;;;;;;;;4971722;28;20239;-66
2023/11/28 07:14:22;;;;;;;0.90;0.90;;;;;;;;;;5004168;28;20206;-65
2023/11/28 07:16:50;;;;;;;1.00;1.00;;;;;;;;;;4993302;28;20665;-65
2023/11/28 07:19:18;;;;;;;0.90;0.90;;;;;;;;;;4990254;28;20207;-65
2023/11/28 07:21:48;;;;;;;0.80;0.80;;;;;;;;;;4992204;28;20321;-66
2023/11/28 07:24:21;;;;;;;1.52;1.42;;;;;;;;;;5006354;28;20191;-65
2023/11/28 07:26:49;;;;;;;1.20;1.10;;;;;;;;;;5000791;28;20193;-65
2023/11/28 07:29:17;;;;;;;1.08;0.98;;;;;;;;;;5026523;28;20199;-65
2023/11/28 07:31:46;;;;;;;4.30;2.30;;;;;;;;;;4994711;28;20719;-65
2023/11/28 07:34:14;;;;;;;1.58;1.10;;;;;;;;;;5003212;28;20202;-65
2023/11/28 07:36:47;;;;;;;1.65;0.98;;;;;;;;;;5004217;28;20209;-65
2023/11/28 07:39:17;;;;;;;1.10;1.00;;;;;;;;;;4995770;28;20191;-65
2023/11/28 07:41:45;;;;;;;1.27;1.17;;;;;;;;;;5000295;28;20238;-65
2023/11/28 07:44:13;;;;;;;0.95;0.95;;;;;;;;;;4980906;28;20223;-66
2023/11/28 07:46:41;;;;;;;1.00;1.00;;;;;;;;;;4989345;28;20282;-67
2023/11/28 07:49:09;;;;;;;1.60;1.10;;;;;;;;;;4989296;28;20206;-66
2023/11/28 07:51:38;;;;;;;0.85;0.85;;;;;;;;;;4989247;28;20226;-65
2023/11/28 07:54:06;;;;;;;1.67;0.95;;;;;;;;;;4989894;28;20206;-66
2023/11/28 07:56:35;;;;;;;2.00;1.25;;;;;;;;;;4990311;28;20194;-66
2023/11/28 07:59:04;;;;;;;1.00;0.90;;;;;;;;;;5005260;28;20202;-66
2023/11/28 08:01:32;;;;;;;1.48;1.20;;;;;;;;;;5001578;28;20205;-65
2023/11/28 08:04:00;;;;;;;1.40;1.30;;;;;;;;;;4999143;28;20214;-66
2023/11/28 08:06:29;;;;;;;0.90;0.90;;;;;;;;;;4995767;28;20199;-66
2023/11/28 08:08:57;;;;;;;1.00;1.00;;;;;;;;;;5039619;28;20205;-66
2023/11/28 08:11:25;;;;;;;1.05;1.05;;;;;;;;;;5001900;28;20214;-65
2023/11/28 08:13:55;;;;;;;1.00;1.00;;;;;;;;;;4982170;28;20583;-66
2023/11/28 08:16:24;;;;;;;1.70;1.60;;;;;;;;;;5002023;28;20657;-66
2023/11/28 08:18:52;;;;;;;7.32;4.60;;;;;;;;;;4998064;28;20201;-66
2023/11/28 08:21:20;;;;;;;3.95;1.67;;;;;;;;;;5007473;28;20198;-66
2023/11/28 08:23:48;;;;;;;2.13;1.92;;;;;;;;;;4994630;28;20221;-66
2023/11/28 08:26:17;;;;;;;2.15;1.80;;;;;;;;;;5004797;28;20203;-66
2023/11/28 08:28:45;;;;;;;2.58;2.38;;;;;;;;;;5010233;28;20578;-66
2023/11/28 08:31:15;;;;;;;1.42;1.30;;;;;;;;;;5000580;28;20213;-66
2023/11/28 08:33:43;;;;;;;1.30;1.20;;;;;;;;;;5009675;28;20202;-66
2023/11/28 08:36:11;;;;;;;0.98;0.88;;;;;;;;;;5062476;28;20240;-66
2023/11/28 08:38:39;;;;;;;0.70;0.70;;;;;;;;;;5010934;28;20312;-65
2023/11/28 08:41:08;;;;;;;1.15;1.05;;;;;;;;;;5003747;28;20781;-66
2023/11/28 08:43:36;;;;;;;1.55;1.45;;;;;;;;;;5009459;28;20222;-66
2023/11/28 08:46:04;;;;;;;2.17;1.13;;;;;;;;;;4985309;28;20217;-66
2023/11/28 08:48:34;;;;;;;1.30;1.20;;;;;;;;;;5005075;28;20203;-66
2023/11/28 08:51:02;;;;;;;1.08;0.98;;;;;;;;;;5005105;28;20202;-66
2023/11/28 08:53:30;;;;;;;1.40;1.30;;;;;;;;;;5008965;28;20222;-66
2023/11/28 08:55:58;;;;;;;1.75;1.30;;;;;;;;;;5053173;28;20198;-66
2023/11/28 08:58:26;;;;;;;1.38;1.27;;;;;;;;;;5002565;28;20205;-66
2023/11/28 09:00:54;;;;;;;1.67;1.55;;;;;;;;;;4994800;28;20202;-66
2023/11/28 09:03:22;;;;;;;2.05;1.95;;;;;;;;;;5001205;28;20209;-67
2023/11/28 09:05:51;;;;;;;2.58;1.20;;;;;;;;;;5002208;28;20202;-68
2023/11/28 09:08:19;;;;;;;2.53;2.33;;;;;;;;;;5001302;28;20582;-67
2023/11/28 09:10:47;;;;;;;2.65;2.05;;;;;;;;;;5012245;28;20202;-66
2023/11/28 09:13:15;;;;;;;2.10;2.00;;;;;;;;;;5011099;28;20226;-66
2023/11/28 09:15:43;;;;;;;1.60;1.50;;;;;;;;;;5015176;28;20198;-66
2023/11/28 09:18:12;;;;;;;1.80;1.70;;;;;;;;;;5066935;28;20209;-66
2023/11/28 09:20:40;;;;;;;3.42;1.60;;;;;;;;;;5038607;28;20208;-66
2023/11/28 09:23:09;;;;;;;1.10;1.00;;;;;;;;;;5010944;28;20202;-66
2023/11/28 09:25:37;;;;;;;1.52;1.38;;;;;;;;;;5033486;28;20192;-66
2023/11/28 09:28:05;;;;;;;1.60;1.50;;;;;;;;;;5040955;28;20209;-66
2023/11/28 09:30:34;;;;;;;1.70;1.60;;;;;;;;;;5007827;28;20198;-67
2023/11/28 09:33:02;;;;;;;2.13;1.92;;;;;;;;;;5002958;28;20229;-67
2023/11/28 09:35:32;;;;;;;2.70;2.38;;;;;;;;;;4998270;28;20309;-67
2023/11/28 09:38:00;;;;;;;2.10;1.90;;;;;;;;;;5014463;28;20198;-67
2023/11/28 09:40:29;;;;;;;1.88;1.77;;;;;;;;;;5010738;28;20236;-66
2023/11/28 09:42:58;;;;;;;2.10;2.00;;;;;;;;;;5078110;28;20188;-66
2023/11/28 09:45:27;;;;;;;1.48;1.35;;;;;;;;;;4989332;28;20281;-66
2023/11/28 09:47:56;;;;;;;1.40;1.10;;;;;;;;;;4987951;28;20692;-66
2023/11/28 09:50:25;;;;;;;2.03;1.42;;;;;;;;;;5005273;28;20198;-66
2023/11/28 09:52:54;;;;;;;1.70;1.60;;;;;;;;;;5009716;28;20211;-67
2023/11/28 09:55:24;;;;;;;2.30;2.20;;;;;;;;;;5004863;28;20226;-66
2023/11/28 09:57:56;;;;;;;1.83;1.73;;;;;;;;;;4993969;28;20657;-66
2023/11/28 10:00:25;;;;;;;1.30;1.20;;;;;;;;;;4994385;28;20588;-66
2023/11/28 10:02:54;;;;;;;1.20;1.20;;;;;;;;;;4992012;28;20195;-66
2023/11/28 10:05:21;;;;;;;1.42;1.42;;;;;;;;;;4993722;28;20206;-66
2023/11/28 10:07:53;;;;;;;1.48;1.38;;;;;;;;;;4992864;28;20207;-65
2023/11/28 10:10:22;;;;;;;2.40;2.30;;;;;;;;;;4987191;28;20200;-66
2023/11/28 10:12:51;;;;;;;2.10;2.00;;;;;;;;;;4988282;28;20235;-66
2023/11/28 10:15:21;;;;;;;5.70;4.65;;;;;;;;;;4980031;28;20211;-66
2023/11/28 10:17:50;;;;;;;3.17;2.88;;;;;;;;;;4990676;28;20198;-66
2023/11/28 10:20:18;;;;;;;17.30;9.68;;;;;;;;;;4987117;28;20361;-66
2023/11/28 10:22:51;;;;;;;10.65;6.28;;;;;;;;;;4978506;28;20204;-66
2023/11/28 10:25:21;;;;;;;4.40;3.95;;;;;;;;;;4996464;28;20611;-66
2023/11/28 10:27:50;;;;;;;4.40;4.05;;;;;;;;;;4999876;28;20270;-66
2023/11/28 10:30:21;;;;;;;6.50;5.47;;;;;;;;;;5012836;28;20202;-65
2023/11/28 10:32:50;;;;;;;2.65;2.45;;;;;;;;;;5008902;28;20680;-66
2023/11/28 10:35:18;;;;;;;8.25;5.97;;;;;;;;;;5007182;28;20663;-66
2023/11/28 10:37:47;;;;;;;8.35;6.50;;;;;;;;;;4982648;28;20202;-66
2023/11/28 10:40:17;;;;;;;2.92;2.72;;;;;;;;;;4982682;28;20200;-66
2023/11/28 10:42:45;;;;;;;2.20;2.10;;;;;;;;;;4972432;28;20672;-67
2023/11/28 10:45:15;;;;;;;2.65;2.50;;;;;;;;;;4998222;28;20230;-67
2023/11/28 10:47:44;;;;;;;3.58;3.35;;;;;;;;;;4996196;28;20209;-67
2023/11/28 10:50:14;;;;;;;3.10;2.70;;;;;;;;;;4997006;28;20205;-66
2023/11/28 10:52:43;;;;;;;3.20;2.92;;;;;;;;;;4972789;28;20223;-66
2023/11/28 10:55:11;;;;;;;2.67;2.45;;;;;;;;;;4971329;28;20276;-66
2023/11/28 10:57:42;;;;;;;2.28;2.17;;;;;;;;;;4973085;28;20312;-66
2023/11/28 11:00:12;;;;;;;3.03;2.55;;;;;;;;;;5001529;28;20190;-67
2023/11/28 11:02:41;;;;;;;8.63;1.73;;;;;;;;;;5002868;28;20191;-66
2023/11/28 11:05:10;;;;;;;2.72;2.53;;;;;;;;;;4995618;28;20207;-66
2023/11/28 11:07:39;;;;;;;1.52;1.42;;;;;;;;;;5006209;28;20197;-67
2023/11/28 11:10:08;;;;;;;2.10;1.88;;;;;;;;;;5010277;28;20530;-66
2023/11/28 11:12:38;;;;;;;2.63;2.42;;;;;;;;;;5006123;28;20710;-67
2023/11/28 11:15:12;;;;;;;2.38;2.17;;;;;;;;;;4997218;28;20205;-66
2023/11/28 11:17:45;;;;;;;2.85;2.17;;;;;;;;;;4995334;28;20641;-67
2023/11/28 11:20:13;;;;;;;4.20;1.60;;;;;;;;;;4990303;28;20195;-66
2023/11/28 11:22:47;;;;;;;1.95;1.85;;;;;;;;;;4988795;28;20574;-66
2023/11/28 11:25:15;;;;;;;3.45;3.25;;;;;;;;;;4997752;28;20198;-67
2023/11/28 11:27:44;;;;;;;1.92;1.83;;;;;;;;;;5002081;28;20210;-66
2023/11/28 11:30:12;;;;;;;8.10;4.10;;;;;;;;;;4997005;28;20202;-66
2023/11/28 11:32:41;;;;;;;4.43;4.05;;;;;;;;;;4990522;28;20225;-66
2023/11/28 11:35:09;;;;;;;4.80;4.40;;;;;;;;;;4989955;28;20673;-66
2023/11/28 11:37:38;;;;;;;2.40;2.30;;;;;;;;;;5002960;28;20204;-66
2023/11/28 11:40:08;;;;;;;5.32;3.45;;;;;;;;;;4984430;28;20206;-66
2023/11/28 11:42:40;;;;;;;6.63;5.18;;;;;;;;;;5006247;28;20194;-67
2023/11/28 11:45:10;;;;;;;9.20;6.15;;;;;;;;;;4993879;28;20245;-67
2023/11/28 11:47:38;;;;;;;3.17;2.95;;;;;;;;;;4999104;28;20203;-66
2023/11/28 11:50:07;;;;;;;3.20;2.38;;;;;;;;;;4999216;28;20207;-67
2023/11/28 11:52:35;;;;;;;5.90;3.00;;;;;;;;;;5001852;28;20210;-66
2023/11/28 11:55:05;;;;;;;2.00;1.90;;;;;;;;;;4987088;28;20572;-65
2023/11/28 11:57:35;;;;;;;2.22;2.13;;;;;;;;;;4991188;28;20211;-67
2023/11/28 12:00:04;;;;;;;2.97;2.78;;;;;;;;;;5000189;28;20567;-66
2023/11/28 12:02:39;;;;;;;3.00;2.80;;;;;;;;;;5012336;28;20267;-67
2023/11/28 12:05:08;;;;;;;2.70;2.50;;;;;;;;;;4990313;28;20199;-67
2023/11/28 12:07:37;;;;;;;2.80;2.55;;;;;;;;;;4987823;28;20216;-66
2023/11/28 12:10:09;;;;;;;3.10;2.90;;;;;;;;;;4980234;28;20199;-67
2023/11/28 12:12:39;;;;;;;3.72;3.42;;;;;;;;;;4979392;28;20249;-66
2023/11/28 12:15:08;;;;;;;3.28;2.97;;;;;;;;;;4977530;28;20210;-66
2023/11/28 12:17:38;;;;;;;3.63;3.30;;;;;;;;;;4980770;28;20208;-67
2023/11/28 12:20:07;;;;;;;4.13;3.40;;;;;;;;;;4983222;28;20199;-67
2023/11/28 12:22:35;;;;;;;2.47;2.38;;;;;;;;;;4982806;28;20271;-67
2023/11/28 12:25:03;;;;;;;3.55;3.25;;;;;;;;;;4984407;28;20204;-66
2023/11/28 12:27:34;;;;;;;3.55;3.25;;;;;;;;;;4974883;28;20731;-67
2023/11/28 12:30:05;;;;;;;3.50;3.20;;;;;;;;;;4992127;28;20207;-66
2023/11/28 12:32:34;;;;;;;3.15;2.95;;;;;;;;;;4984148;28;20214;-66
2023/11/28 12:35:06;;;;;;;3.20;3.00;;;;;;;;;;4988056;28;20221;-66
2023/11/28 12:37:34;;;;;;;9.40;6.10;;;;;;;;;;4981385;28;20194;-67
2023/11/28 12:40:09;;;;;;;3.30;3.03;;;;;;;;;;4985942;28;20206;-66
2023/11/28 12:42:44;;;;;;;4.30;4.00;;;;;;;;;;4974498;28;20198;-67
2023/11/28 12:45:14;;;;;;;4.43;4.13;;;;;;;;;;4980128;28;20804;-67
2023/11/28 12:47:43;;;;;;;4.65;4.25;;;;;;;;;;4981940;28;20230;-67
2023/11/28 12:50:12;;;;;;;4.78;4.40;;;;;;;;;;4980804;28;20206;-68
2023/11/28 12:52:42;;;;;;;4.57;4.10;;;;;;;;;;4985703;28;20576;-67
2023/11/28 12:55:11;;;;;;;3.78;3.58;;;;;;;;;;4988546;28;20564;-68
2023/11/28 12:57:39;;;;;;;4.25;3.95;;;;;;;;;;4980062;28;20203;-65
2023/11/28 13:00:08;;;;;;;3.65;3.03;;;;;;;;;;5002948;28;20203;-66
2023/11/28 13:02:38;;;;;;;3.70;3.50;;;;;;;;;;4983597;28;20209;-66
2023/11/28 13:05:07;;;;;;;3.38;3.28;;;;;;;;;;4971792;28;20198;-66
2023/11/28 13:07:35;;;;;;;3.92;3.63;;;;;;;;;;4989391;28;20205;-66
2023/11/28 13:10:03;;;;;;;4.28;3.97;;;;;;;;;;5004247;28;20206;-66
2023/11/28 13:12:32;;;;;;;4.97;4.65;;;;;;;;;;4987588;28;20618;-66
2023/11/28 13:15:00;;;;;;;5.10;4.70;;;;;;;;;;4984869;28;20581;-66
2023/11/28 13:17:28;;;;;;;5.57;5.07;;;;;;;;;;4991336;28;20866;-66
2023/11/28 13:19:58;;;;;;;3.65;3.55;;;;;;;;;;4991702;28;20202;-66
2023/11/28 13:22:26;;;;;;;4.15;3.85;;;;;;;;;;4992761;28;20205;-66
2023/11/28 13:24:56;;;;;;;4.70;4.40;;;;;;;;;;4996847;28;20198;-66
2023/11/28 13:27:24;;;;;;;4.53;4.22;;;;;;;;;;5011107;28;20213;-66
2023/11/28 13:29:53;;;;;;;5.40;4.90;;;;;;;;;;4990402;28;20198;-67
2023/11/28 13:32:21;;;;;;;8.68;5.15;;;;;;;;;;4992718;28;20240;-66
2023/11/28 13:34:49;;;;;;;5.97;5.45;;;;;;;;;;5002146;28;20221;-66
2023/11/28 13:37:20;;;;;;;7.68;5.50;;;;;;;;;;4996398;28;20206;-66
2023/11/28 13:39:49;;;;;;;4.20;4.00;;;;;;;;;;5010643;28;20187;-66
2023/11/28 13:42:18;;;;;;;5.10;4.70;;;;;;;;;;5000845;28;20668;-66
2023/11/28 13:44:48;;;;;;;6.85;6.20;;;;;;;;;;4989862;28;20226;-66
2023/11/28 13:47:16;;;;;;;5.68;5.15;;;;;;;;;;4995463;28;20202;-66
2023/11/28 13:49:44;;;;;;;8.48;6.70;;;;;;;;;;5007997;28;20206;-66
2023/11/28 13:52:12;;;;;;;6.95;6.25;;;;;;;;;;5004187;28;20203;-65
2023/11/28 13:54:42;;;;;;;7.70;6.75;;;;;;;;;;4984364;28;20222;-66
2023/11/28 13:57:10;;;;;;;8.05;6.60;;;;;;;;;;4997510;28;20202;-65
2023/11/28 13:59:38;;;;;;;9.52;6.05;;;;;;;;;;4995867;28;20206;-65
2023/11/28 14:02:08;;;;;;;7.88;7.07;;;;;;;;;;4990034;28;20240;-66
2023/11/28 14:04:36;;;;;;;7.05;6.45;;;;;;;;;;5008141;28;20271;-65
2023/11/28 14:07:05;;;;;;;8.00;7.30;;;;;;;;;;4991729;28;20209;-65
2023/11/28 14:09:33;;;;;;;11.80;8.18;;;;;;;;;;4996574;28;20202;-66
2023/11/28 14:12:03;;;;;;;11.13;9.93;;;;;;;;;;5006785;28;20569;-66
2023/11/28 14:14:31;;;;;;;9.20;7.97;;;;;;;;;;4990760;28;20226;-66
2023/11/28 14:16:59;;;;;;;11.25;9.80;;;;;;;;;;4989614;28;20206;-65
2023/11/28 14:19:27;;;;;;;6.72;6.15;;;;;;;;;;4991041;28;20214;-65
2023/11/28 14:21:56;;;;;;;7.93;7.28;;;;;;;;;;4990947;28;20216;-66
2023/11/28 14:24:24;;;;;;;7.90;7.20;;;;;;;;;;4990909;28;20209;-65
2023/11/28 14:26:53;;;;;;;7.65;6.95;;;;;;;;;;5001146;28;20210;-66
2023/11/28 14:29:22;;;;;;;10.68;9.40;;;;;;;;;;4985779;28;20206;-65
2023/11/28 14:31:51;;;;;;;9.77;8.65;;;;;;;;;;5010752;28;20220;-66
2023/11/28 14:34:19;;;;;;;9.90;8.30;;;;;;;;;;5000569;28;20567;-65
2023/11/28 14:36:48;;;;;;;7.78;7.07;;;;;;;;;;4987698;28;20202;-65
2023/11/28 14:39:17;;;;;;;8.27;6.75;;;;;;;;;;4977555;28;20256;-67
2023/11/28 14:41:45;;;;;;;10.48;8.60;;;;;;;;;;4995918;28;20598;-66
2023/11/28 14:44:13;;;;;;;9.00;8.10;;;;;;;;;;4999817;28;20705;-65
2023/11/28 14:46:42;;;;;;;10.70;8.77;;;;;;;;;;5011387;28;20206;-65
2023/11/28 14:49:11;;;;;;;7.32;6.68;;;;;;;;;;4986141;28;20215;-66
2023/11/28 14:51:39;;;;;;;8.95;8.05;;;;;;;;;;4989908;28;20197;-65
2023/11/28 14:54:08;;;;;;;8.30;7.60;;;;;;;;;;4986867;28;20209;-65
2023/11/28 14:56:37;;;;;;;7.50;6.55;;;;;;;;;;4984963;28;20210;-65